Time,TemperatureF,DewpointF,PressureIn,WindDirection,WindDirectionDegrees,WindSpeedMPH,WindSpeedGustMPH,Humidity,HourlyPrecipIn,Conditions,Clouds,dailyrainin,SoftwareType,DateUTC
2013-10-22 00:22:00,55.0,54.0,-100.00,North,-999,-999.0,-999.0,96,-99.99,,,0.00,,2013-10-22 05:22:00,
2013-10-22 00:43:00,55.0,54.0,-100.00,North,-999,-999.0,-999.0,95,0.00,,,0.00,,2013-10-22 05:43:00,
2013-10-22 00:52:00,55.0,54.0,-100.00,North,-999,-999.0,-999.0,95,0.00,,,0.00,,2013-10-22 05:52:00,
2013-10-22 01:12:00,55.0,54.0,-100.00,North,-999,-999.0,-999.0,95,0.00,,,0.00,,2013-10-22 06:12:00,
2013-10-22 01:22:00,55.0,54.0,-100.00,North,-999,-999.0,-999.0,95,0.00,,,0.00,,2013-10-22 06:22:00,
2013-10-22 01:54:00,55.0,53.0,-100.00,North,-999,-999.0,-999.0,93,0.00,,,0.00,,2013-10-22 06:54:00,
2013-10-22 02:02:00,55.0,53.0,-100.00,North,-999,-999.0,-999.0,93,0.00,,,0.00,,2013-10-22 07:02:00,
2013-10-22 02:22:00,55.0,53.0,-100.00,North,-999,-999.0,-999.0,93,-99.99,,,0.00,,2013-10-22 07:22:00,
2013-10-22 02:52:00,55.0,53.0,-100.00,North,-999,-999.0,-999.0,94,0.00,,,0.00,,2013-10-22 07:52:00,
2013-10-22 03:22:00,54.0,53.0,-100.00,North,-999,-999.0,-999.0,96,0.00,,,-99.99,,2013-10-22 08:22:00,
2013-10-22 03:42:00,53.0,52.0,-100.00,North,-999,-999.0,-999.0,97,0.00,,,0.00,,2013-10-22 08:42:00,
2013-10-22 03:52:00,53.0,52.0,-100.00,North,-999,-999.0,-999.0,97,0.00,,,0.00,,2013-10-22 08:52:00,
2013-10-22 04:22:00,51.0,50.0,-100.00,North,-999,-999.0,-999.0,99,0.00,,,0.00,,2013-10-22 09:22:00,
2013-10-22 04:53:00,50.0,49.0,-100.00,North,-999,-999.0,-999.0,96,-99.99,,,0.00,,2013-10-22 09:53:00,
2013-10-22 05:13:00,49.0,49.0,-100.00,North,-999,-999.0,-999.0,98,0.00,,,0.00,,2013-10-22 10:13:00,
2013-10-22 05:23:00,49.0,49.0,-100.00,North,-999,-999.0,-999.0,98,0.00,,,0.00,,2013-10-22 10:23:00,
2013-10-22 05:53:00,48.0,48.0,-100.00,North,-999,-999.0,-999.0,99,0.00,,,-99.99,,2013-10-22 10:53:00,
2013-10-22 06:22:00,47.0,47.0,-100.00,North,-999,-999.0,-999.0,99,-99.99,,,0.00,,2013-10-22 11:22:00,
2013-10-22 06:52:00,47.0,46.0,-100.00,North,-999,-999.0,-999.0,99,0.00,,,0.00,,2013-10-22 11:52:00,
2013-10-22 07:01:00,47.0,46.0,-100.00,North,-999,-999.0,-999.0,99,0.00,,,0.00,,2013-10-22 12:01:00,
2013-10-22 07:11:00,47.0,46.0,-100.00,North,-999,-999.0,-999.0,99,0.00,,,0.00,,2013-10-22 12:11:00,
2013-10-22 07:22:00,47.0,46.0,-100.00,North,-999,-999.0,-999.0,99,0.00,,,0.00,,2013-10-22 12:22:00,
2013-10-22 07:52:00,46.0,46.0,-100.00,North,-999,-999.0,-999.0,99,0.00,,,0.00,,2013-10-22 12:52:00,
2013-10-22 08:21:00,46.0,45.0,-100.00,North,-999,-999.0,-999.0,97,-99.99,,,0.00,,2013-10-22 13:21:00,
2013-10-22 08:53:00,47.0,44.0,-100.00,North,-999,-999.0,-999.0,91,0.00,,,0.00,,2013-10-22 13:53:00,
2013-10-22 09:21:00,49.0,43.0,-100.00,North,-999,-999.0,-999.0,81,0.00,,,0.00,,2013-10-22 14:21:00,
2013-10-22 09:52:00,52.0,44.0,-100.00,North,-999,-999.0,-999.0,74,0.00,,,0.00,,2013-10-22 14:52:00,
2013-10-22 10:01:00,52.0,44.0,-100.00,North,-999,-999.0,-999.0,74,0.00,,,0.00,,2013-10-22 15:01:00,
2013-10-22 10:22:00,54.0,43.0,-100.00,North,-999,-999.0,-999.0,67,0.00,,,0.00,,2013-10-22 15:22:00,
2013-10-22 10:54:00,56.0,44.0,-100.00,North,-999,-999.0,-999.0,66,0.00,,,0.00,,2013-10-22 15:54:00,
2013-10-22 11:04:00,56.0,44.0,-100.00,North,-999,-999.0,-999.0,66,0.00,,,0.00,,2013-10-22 16:04:00,
2013-10-22 11:23:00,59.0,41.0,-100.00,North,-999,-999.0,-999.0,52,0.00,,,-99.99,,2013-10-22 16:23:00,
2013-10-22 11:53:00,62.0,35.0,-100.00,North,-999,-999.0,-999.0,37,0.00,,,0.00,,2013-10-22 16:53:00,
2013-10-22 12:12:00,63.0,36.0,-100.00,North,-999,-999.0,-999.0,37,-99.99,,,0.00,,2013-10-22 17:12:00,
2013-10-22 12:22:00,63.0,36.0,-100.00,North,-999,-999.0,-999.0,37,-99.99,,,0.00,,2013-10-22 17:22:00,
2013-10-22 12:34:00,63.0,36.0,-100.00,North,-999,-999.0,-999.0,37,-99.99,,,0.00,,2013-10-22 17:34:00,
2013-10-22 12:53:00,67.0,35.0,-100.00,North,-999,-999.0,-999.0,31,0.00,,,0.00,,2013-10-22 17:53:00,
2013-10-22 13:12:00,67.0,34.0,-100.00,North,-999,-999.0,-999.0,29,0.00,,,0.00,,2013-10-22 18:12:00,
2013-10-22 13:22:00,67.0,34.0,-100.00,North,-999,-999.0,-999.0,29,0.00,,,0.00,,2013-10-22 18:22:00,
2013-10-22 13:42:00,68.0,34.0,-100.00,North,-999,-999.0,-999.0,28,0.00,,,0.00,,2013-10-22 18:42:00,
2013-10-22 13:52:00,68.0,34.0,-100.00,North,-999,-999.0,-999.0,28,0.00,,,0.00,,2013-10-22 18:52:00,
2013-10-22 14:22:00,70.0,34.0,-100.00,North,-999,-999.0,-999.0,26,-99.99,,,0.00,,2013-10-22 19:22:00,
2013-10-22 14:42:00,70.0,36.0,-100.00,North,-999,-999.0,-999.0,28,0.00,,,0.00,,2013-10-22 19:42:00,
2013-10-22 14:52:00,70.0,36.0,-100.00,North,-999,-999.0,-999.0,28,0.00,,,0.00,,2013-10-22 19:52:00,
2013-10-22 15:22:00,71.0,35.0,-100.00,North,-999,-999.0,-999.0,27,0.00,,,0.00,,2013-10-22 20:22:00,
2013-10-22 15:32:00,71.0,35.0,-100.00,North,-999,-999.0,-999.0,27,0.00,,,0.00,,2013-10-22 20:32:00,
2013-10-22 15:52:00,71.0,36.0,-100.00,North,-999,-999.0,-999.0,27,-99.99,,,0.00,,2013-10-22 20:52:00,
2013-10-22 16:23:00,71.0,34.0,-100.00,North,-999,-999.0,-999.0,26,0.00,,,0.00,,2013-10-22 21:23:00,
2013-10-22 16:54:00,72.0,37.0,-100.00,North,-999,-999.0,-999.0,28,0.00,,,0.00,,2013-10-22 21:54:00,
2013-10-22 17:24:00,71.0,35.0,-100.00,North,-999,-999.0,-999.0,27,0.00,,,0.00,,2013-10-22 22:24:00,
2013-10-22 17:44:00,71.0,34.0,-100.00,North,-999,-999.0,-999.0,26,0.00,,,0.00,,2013-10-22 22:44:00,
2013-10-22 17:54:00,71.0,34.0,-100.00,North,-999,-999.0,-999.0,26,0.00,,,0.00,,2013-10-22 22:54:00,
2013-10-22 18:23:00,71.0,35.0,-100.00,North,-999,-999.0,-999.0,27,0.00,,,0.00,,2013-10-22 23:23:00,
2013-10-22 18:43:00,70.0,35.0,-100.00,North,-999,-999.0,-999.0,28,0.00,,,0.00,,2013-10-22 23:43:00,
2013-10-22 18:53:00,70.0,35.0,-100.00,North,-999,-999.0,-999.0,28,0.00,,,0.00,,2013-10-22 23:53:00,
2013-10-22 19:22:00,66.0,40.0,-100.00,North,-999,-999.0,-999.0,39,0.00,,,0.00,,2013-10-23 00:22:00,
2013-10-22 20:23:00,57.0,43.0,-100.00,North,-999,-999.0,-999.0,59,0.00,,,0.00,,2013-10-23 01:23:00,
2013-10-22 20:42:00,56.0,41.0,-100.00,North,-999,-999.0,-999.0,57,0.00,,,0.00,,2013-10-23 01:42:00,
2013-10-22 20:52:00,56.0,41.0,-100.00,North,-999,-999.0,-999.0,57,0.00,,,0.00,,2013-10-23 01:52:00,
2013-10-22 21:22:00,55.0,37.0,-100.00,North,-999,-999.0,-999.0,51,-99.99,,,0.00,,2013-10-23 02:22:00,
2013-10-22 21:53:00,54.0,37.0,-100.00,North,-999,-999.0,-999.0,52,-99.99,,,0.00,,2013-10-23 02:53:00,
2013-10-22 22:22:00,55.0,-99.9,-100.00,North,-999,-999.0,-999.0,44,0.00,,,0.00,,2013-10-23 03:22:00,
2013-10-22 22:55:00,57.0,35.0,-100.00,North,-999,-999.0,-999.0,43,0.00,,,0.00,,2013-10-23 03:55:00,
2013-10-22 23:24:00,56.0,35.0,-100.00,North,-999,-999.0,-999.0,45,0.00,,,-99.99,,2013-10-23 04:24:00,
2013-10-22 23:34:00,56.0,35.0,-100.00,North,-999,-999.0,-999.0,45,0.00,,,-99.99,,2013-10-23 04:34:00,
2013-10-22 23:45:00,56.0,35.0,-100.00,North,-999,-999.0,-999.0,45,0.00,,,-99.99,,2013-10-23 04:45:00,
2013-10-22 23:54:00,56.0,35.0,-100.00,North,-999,-999.0,-999.0,45,0.00,,,-99.99,,2013-10-23 04:54:00,